WXM80 ListenWXM80 Stop

You find our weather info also at:

UK Metoffice

WeatherCloud

Weather Underground

Northeastern Weather Network

AWEKAS

Citizen Weather Observer Program (CWOP)

HAMweather, WeatherForYou, PWS Weather


Weather Underground History page Text

Daily Summary for February 8, 2018 Units:  Metric    English   Both
« Previous Day
Next Day »
Daily Weekly Monthly Yearly Custom
  High: Low: Average:
Temperature: 1.7 °C -4.2 °C -0.8 °C
Dew Point: 0.4 °C -8.1 °C -5.9 °C
Humidity: 91 % 55 % 69 %
Wind Speed: 16.3 km/h 0 km/h 6.3 km/h
Wind Gust: 27.8 km/h - -
Wind:- - West
Pressure: 1023.2 hPa 1009.4 hPa -
Precipitation: 0 mm    
Historical Graphs
 
 
Tabular Data for February 8, 2018
Time Temperature Dew Point Pressure Wind Wind Speed Wind Gust Humidity Rainfall Rate (Hourly)
00:01 1.7 °C 0.4 °C 1009.4 hPa NNW 9 km/h 20.4 km/h 91 % 0 mm
00:06 1.6 °C 0.3 °C 1009.4 hPa North 6.6 km/h 14.8 km/h 91 % 0 mm
00:11 1.5 °C 0.1 °C 1009.7 hPa NNW 15.4 km/h 24.1 km/h 90 % 0 mm
00:16 1.3 °C -0.1 °C 1009.7 hPa NNW 8 km/h 20.4 km/h 90 % 0 mm
00:22 1.3 °C -0.3 °C 1010 hPa NNW 9.8 km/h 16.7 km/h 89 % 0 mm
00:27 1.2 °C -0.4 °C 1010 hPa NNW 8.2 km/h 13 km/h 89 % 0 mm
00:32 1.1 °C -0.5 °C 1010 hPa NNE 9.3 km/h 14.8 km/h 89 % 0 mm
00:37 1.1 °C -0.6 °C 1010.4 hPa NNW 9 km/h 14.8 km/h 89 % 0 mm
00:42 0.9 °C -0.8 °C 1010.7 hPa North 9.8 km/h 18.5 km/h 88 % 0 mm
00:47 0.9 °C -0.9 °C 1010.7 hPa North 7.9 km/h 16.1 km/h 88 % 0 mm
00:52 0.8 °C -0.9 °C 1011.1 hPa North 6.8 km/h 13 km/h 88 % 0 mm
00:57 0.8 °C -1.2 °C 1011.1 hPa North 10.5 km/h 16.7 km/h 87 % 0 mm
01:02 0.7 °C -1.2 °C 1011.1 hPa NNW 5.8 km/h 9.7 km/h 87 % 0 mm
01:07 0.7 °C -1.2 °C 1011.4 hPa NW 4.8 km/h 13 km/h 87 % 0 mm
01:12 0.6 °C -1.3 °C 1011.4 hPa WNW 5.5 km/h 18.5 km/h 87 % 0 mm
01:17 0.6 °C -1.3 °C 1011.4 hPa NNW 9 km/h 16.7 km/h 87 % 0 mm
01:22 0.6 °C -1.5 °C 1011.4 hPa NNW 9.3 km/h 18.5 km/h 86 % 0 mm
01:27 0.5 °C -1.6 °C 1011.7 hPa NNW 9.3 km/h 16.7 km/h 86 % 0 mm
01:32 0.4 °C -1.6 °C 1011.7 hPa NNW 9.2 km/h 20.4 km/h 86 % 0 mm
01:37 0.4 °C -1.6 °C 1011.7 hPa North 7.4 km/h 14.8 km/h 86 % 0 mm
01:42 0.4 °C -1.6 °C 1011.7 hPa North 9.3 km/h 14.8 km/h 86 % 0 mm
01:47 0.4 °C -1.8 °C 1012.1 hPa NW 13.8 km/h 13.8 km/h 85 % 0 mm
01:52 0.4 °C -1.8 °C 1012.1 hPa NNW 15.1 km/h 22.2 km/h 85 % 0 mm
01:58 0.3 °C -2.1 °C 1012.1 hPa NW 6.9 km/h 12.9 km/h 84 % 0 mm
02:03 0.3 °C -2.1 °C 1012.1 hPa NW 11.1 km/h 18.5 km/h 84 % 0 mm
02:08 0.3 °C -2.3 °C 1012.1 hPa NNW 8.9 km/h 18.5 km/h 83 % 0 mm
02:13 0.3 °C -2.3 °C 1012.4 hPa NNW 9.5 km/h 16.1 km/h 83 % 0 mm
02:18 0.3 °C -2.4 °C 1012.4 hPa NNE 6.4 km/h 13 km/h 82 % 0 mm
02:23 0.2 °C -2.5 °C 1012.4 hPa NNW 9.3 km/h 14.8 km/h 82 % 0 mm
02:28 0.2 °C -2.7 °C 1012.4 hPa NNW 6.8 km/h 9.3 km/h 81 % 0 mm
02:33 0.2 °C -2.6 °C 1012.4 hPa NNW 4.7 km/h 14.8 km/h 82 % 0 mm
02:38 0.2 °C -2.6 °C 1012.4 hPa NW 5.8 km/h 13 km/h 82 % 0 mm
02:43 0.2 °C -2.6 °C 1012.4 hPa North 6.1 km/h 11.1 km/h 82 % 0 mm
02:48 0.1 °C -2.5 °C 1012.4 hPa NNE 5.3 km/h 9.7 km/h 83 % 0 mm
02:53 0.1 °C -2.5 °C 1012.4 hPa NW 7.4 km/h 14.8 km/h 83 % 0 mm
02:58 0.1 °C -2.5 °C 1012.4 hPa North 6.4 km/h 8 km/h 83 % 0 mm
03:03 0.1 °C -2.5 °C 1012.4 hPa NNW 8.2 km/h 14.5 km/h 83 % 0 mm
03:08 0 °C -2.6 °C 1012.4 hPa NNW 5.3 km/h 9.3 km/h 83 % 0 mm
03:13 0 °C -2.7 °C 1012.8 hPa NNW 7.4 km/h 16.7 km/h 82 % 0 mm
03:18 -0.1 °C -2.9 °C 1012.8 hPa WNW 8.5 km/h 13 km/h 81 % 0 mm
03:23 -0.1 °C -3.1 °C 1012.8 hPa North 5.8 km/h 9.3 km/h 80 % 0 mm
03:29 -0.1 °C -3.1 °C 1013.1 hPa NNW 10.9 km/h 10.9 km/h 80 % 0 mm
03:34 -0.1 °C -3.3 °C 1013.1 hPa North 7.1 km/h 13 km/h 79 % 0 mm
03:39 -0.1 °C -3.1 °C 1013.1 hPa NW 6.9 km/h 18.5 km/h 80 % 0 mm
03:44 -0.1 °C -3.3 °C 1013.1 hPa NNW 10 km/h 18.5 km/h 79 % 0 mm
03:49 -0.1 °C -3.5 °C 1013.1 hPa North 14.2 km/h 24.1 km/h 78 % 0 mm
03:54 -0.2 °C -3.7 °C 1013.1 hPa NNE 11.9 km/h 18.5 km/h 77 % 0 mm
03:59 -0.2 °C -3.6 °C 1013.1 hPa North 7.4 km/h 16.7 km/h 78 % 0 mm
04:04 -0.3 °C -3.7 °C 1013.1 hPa NNW 6.1 km/h 16.7 km/h 78 % 0 mm
04:09 -0.3 °C -3.7 °C 1013.4 hPa North 9 km/h 16.7 km/h 78 % 0 mm
04:14 -0.4 °C -3.8 °C 1013.4 hPa NNW 10.3 km/h 24.1 km/h 78 % 0 mm
04:19 -0.4 °C -4 °C 1013.4 hPa NNW 7.2 km/h 11.1 km/h 77 % 0 mm
04:24 -0.6 °C -4.1 °C 1013.8 hPa NNW 11.1 km/h 20.4 km/h 77 % 0 mm
04:29 -0.6 °C -4.2 °C 1013.8 hPa North 7.4 km/h 14.8 km/h 77 % 0 mm
04:34 -0.7 °C -4.2 °C 1014.1 hPa North 6.8 km/h 17.7 km/h 77 % 0 mm
04:39 -0.7 °C -4.3 °C 1013.8 hPa North 9 km/h 22.2 km/h 77 % 0 mm
04:44 -0.8 °C -4.3 °C 1014.1 hPa North 3.9 km/h 18.5 km/h 77 % 0 mm
04:50 -0.8 °C -4.6 °C 1013.8 hPa North 9 km/h 11.3 km/h 76 % 0 mm
04:55 -0.9 °C -4.4 °C 1014.1 hPa North 7.6 km/h 12.9 km/h 77 % 0 mm
05:00 -1 °C -4.5 °C 1014.1 hPa North 9.5 km/h 22.2 km/h 77 % 0 mm
05:05 -1.1 °C -4.8 °C 1014.4 hPa North 10.6 km/h 20.4 km/h 76 % 0 mm
05:10 -1.1 °C -4.6 °C 1014.4 hPa NNW 9.7 km/h 16.7 km/h 77 % 0 mm
05:15 -1.2 °C -4.7 °C 1014.4 hPa NNE 16.3 km/h 27.8 km/h 77 % 0 mm
05:20 -1.2 °C -4.9 °C 1014.4 hPa NNE 12.2 km/h 20.4 km/h 76 % 0 mm
05:25 -1.3 °C -4.9 °C 1014.8 hPa NNE 15 km/h 24.1 km/h 76 % 0 mm
05:30 -1.3 °C -5.2 °C 1014.8 hPa NNW 11.9 km/h 16.7 km/h 75 % 0 mm
05:35 -1.3 °C -5.2 °C 1014.8 hPa North 14.3 km/h 20.4 km/h 75 % 0 mm
05:40 -1.4 °C -5.2 °C 1015.5 hPa North 8.7 km/h 16.7 km/h 75 % 0 mm
05:45 -1.4 °C -5.3 °C 1015.5 hPa NE 8.4 km/h 14.8 km/h 75 % 0 mm
05:50 -1.5 °C -5.6 °C 1015.5 hPa NNW 12.1 km/h 17.7 km/h 74 % 0 mm
05:55 -1.5 °C -5.6 °C 1015.5 hPa North 10.8 km/h 16.1 km/h 74 % 0 mm
06:00 -1.6 °C -5.4 °C 1015.5 hPa North 9 km/h 14.8 km/h 75 % 0 mm
06:05 -1.6 °C -5.7 °C 1015.5 hPa NNW 12.1 km/h 17.7 km/h 74 % 0 mm
06:10 -1.7 °C -5.9 °C 1015.8 hPa North 5.5 km/h 17.7 km/h 73 % 0 mm
06:15 -1.8 °C -6.3 °C 1016.1 hPa NNW 9.8 km/h 18.5 km/h 71 % 0 mm
06:20 -1.8 °C -6.2 °C 1016.1 hPa NNE 13.2 km/h 20.4 km/h 72 % 0 mm
06:26 -1.8 °C -6.1 °C 1016.1 hPa North 9.7 km/h 20.9 km/h 73 % 0 mm
06:31 -1.9 °C -6.1 °C 1016.1 hPa North 9.7 km/h 19.3 km/h 73 % 0 mm
06:36 -1.9 °C -6.2 °C 1016.5 hPa North 11.3 km/h 19.3 km/h 73 % 0 mm
06:41 -2 °C -6.2 °C 1016.5 hPa North 10.9 km/h 11.1 km/h 73 % 0 mm
06:46 -2.1 °C -6.4 °C 1016.5 hPa North 11.3 km/h 19.3 km/h 72 % 0 mm
06:51 -2.1 °C -6.4 °C 1016.5 hPa North 8 km/h 16.1 km/h 72 % 0 mm
06:56 -2.1 °C -6.5 °C 1016.8 hPa North 11.3 km/h 19.3 km/h 72 % 0 mm
07:01 -2.2 °C -6.6 °C 1017.2 hPa NNW 8.4 km/h 11.3 km/h 72 % 0 mm
07:06 -2.2 °C -6.8 °C 1017.2 hPa NNW 8.9 km/h 14.8 km/h 71 % 0 mm
07:11 -2.3 °C -6.8 °C 1017.5 hPa North 7.4 km/h 18.5 km/h 71 % 0 mm
07:16 -2.3 °C -6.9 °C 1017.2 hPa NW 6.8 km/h 11.1 km/h 71 % 0 mm
07:21 -2.3 °C -7.1 °C 1017.5 hPa NNE 10.9 km/h 18.5 km/h 70 % 0 mm
07:26 -2.4 °C -6.9 °C 1017.5 hPa NW 6.9 km/h 18.5 km/h 71 % 0 mm
07:31 -2.4 °C -7.2 °C 1017.5 hPa NW 7.2 km/h 14.8 km/h 70 % 0 mm
07:36 -2.4 °C -7 °C 1017.8 hPa NW 6.1 km/h 11.1 km/h 71 % 0 mm
07:41 -2.4 °C -6.8 °C 1017.8 hPa NW 9.7 km/h 16.1 km/h 72 % 0 mm
07:46 -2.5 °C -6.8 °C 1017.8 hPa NNW 8.7 km/h 16.7 km/h 72 % 0 mm
07:51 -2.5 °C -7.1 °C 1018.2 hPa NNW 9.8 km/h 16.7 km/h 71 % 0 mm
07:56 -2.5 °C -6.8 °C 1018.2 hPa North 6.4 km/h 11.3 km/h 72 % 0 mm
08:01 -2.5 °C -6.7 °C 1018.5 hPa NNE 8.4 km/h 18.5 km/h 73 % 0 mm
08:06 -2.6 °C -6.7 °C 1018.2 hPa North 6 km/h 16.7 km/h 73 % 0 mm
08:11 -2.6 °C -6.9 °C 1018.5 hPa North 4.3 km/h 11.3 km/h 72 % 0 mm
08:16 -2.7 °C -7 °C 1018.5 hPa NNW 5.6 km/h 11.1 km/h 72 % 0 mm
08:21 -2.7 °C -6.8 °C 1018.5 hPa NNE 8.7 km/h 12.9 km/h 73 % 0 mm
08:27 -2.6 °C -6.6 °C 1018.5 hPa NNE 3.4 km/h 14.8 km/h 74 % 0 mm
08:32 -2.6 °C -6.4 °C 1018.8 hPa NNE 10.3 km/h 16.7 km/h 75 % 0 mm
08:37 -2.4 °C -6.3 °C 1018.8 hPa North 1.9 km/h 5.6 km/h 75 % 0 mm
08:42 -2.3 °C -6.2 °C 1018.8 hPa NNE 8 km/h 14.8 km/h 75 % 0 mm
08:47 -2.2 °C -6 °C 1018.8 hPa NNE 6.6 km/h 11.1 km/h 75 % 0 mm
08:52 -2 °C -6 °C 1018.8 hPa NE 8.5 km/h 14.8 km/h 74 % 0 mm
08:57 -1.8 °C -6 °C 1018.8 hPa NNE 8.2 km/h 11.3 km/h 73 % 0 mm
09:02 -1.5 °C -5.6 °C 1018.8 hPa North 6.8 km/h 11.3 km/h 74 % 0 mm
09:07 -1.3 °C -5.7 °C 1018.8 hPa North 1.9 km/h 7.4 km/h 72 % 0 mm
09:12 -1 °C -5.6 °C 1019.2 hPa NE 6.6 km/h 8 km/h 71 % 0 mm
09:17 -0.6 °C -5.2 °C 1019.2 hPa NNE 2.9 km/h 9.3 km/h 71 % 0 mm
09:22 -0.3 °C -5.2 °C 1018.8 hPa NNE 1.4 km/h 5.6 km/h 70 % 0 mm
09:27 -0.2 °C -5.2 °C 1018.8 hPa NNE 8.5 km/h 13 km/h 69 % 0 mm
09:32 -0.3 °C -5.9 °C 1019.2 hPa North 5 km/h 8 km/h 66 % 0 mm
09:37 -0.5 °C -5.9 °C 1018.8 hPa North 5.6 km/h 7.4 km/h 67 % 0 mm
09:42 -0.4 °C -5.6 °C 1018.8 hPa North 5 km/h 7.4 km/h 68 % 0 mm
09:47 -0.4 °C -5.9 °C 1018.8 hPa NNE 8 km/h 11.1 km/h 66 % 0 mm
09:52 -0.2 °C -5.6 °C 1019.2 hPa WNW 5 km/h 9.3 km/h 67 % 0 mm
09:58 0.1 °C -5.5 °C 1019.2 hPa North 4.5 km/h 5.6 km/h 66 % 0 mm
10:03 0.2 °C -6.1 °C 1019.2 hPa North 2.1 km/h 7.4 km/h 63 % 0 mm
10:08 0.3 °C -5.9 °C 1019.2 hPa WNW 4.8 km/h 13 km/h 63 % 0 mm
10:13 0.3 °C -6.1 °C 1019.5 hPa West 6.3 km/h 13 km/h 62 % 0 mm
10:18 0.4 °C -6.2 °C 1019.5 hPa WNW 5.5 km/h 9.3 km/h 61 % 0 mm
10:23 0.5 °C -6.4 °C 1019.5 hPa NNW 8.7 km/h 13 km/h 60 % 0 mm
10:28 0.6 °C -6.1 °C 1019.5 hPa NW 5.5 km/h 7.4 km/h 61 % 0 mm
10:33 0.7 °C -6 °C 1019.5 hPa WNW 5 km/h 9.7 km/h 61 % 0 mm
10:38 0.7 °C -6.2 °C 1019.5 hPa NW 7.6 km/h 13 km/h 60 % 0 mm
10:43 0.8 °C -6.3 °C 1019.2 hPa WNW 6.6 km/h 9.3 km/h 59 % 0 mm
10:48 0.9 °C -6 °C 1019.5 hPa NW 4.8 km/h 9.3 km/h 60 % 0 mm
10:53 1.1 °C -5.2 °C 1019.5 hPa West 2.7 km/h 6.4 km/h 63 % 0 mm
10:58 1.3 °C -5.4 °C 1019.5 hPa NW 3.5 km/h 7.4 km/h 61 % 0 mm
11:03 1.5 °C -5.4 °C 1019.5 hPa North 3.9 km/h 11.3 km/h 60 % 0 mm
11:08 1.5 °C -5.7 °C 1019.5 hPa NW 6.9 km/h 9.3 km/h 59 % 0 mm
11:13 1.5 °C -5.9 °C 1019.2 hPa WSW 7.6 km/h 13 km/h 58 % 0 mm
11:14 1.5 °C -6.1 °C 1019.2 hPa West 7.7 km/h 13 km/h 57 % 0 mm
11:19 1.4 °C -5.9 °C 1019.2 hPa NW 4.5 km/h 7.4 km/h 58 % 0 mm
11:24 1.4 °C -6.4 °C 1019.2 hPa West 5.1 km/h 8 km/h 56 % 0 mm
11:29 1.3 °C -6.3 °C 1019.2 hPa WNW 11.1 km/h 14.8 km/h 57 % 0 mm
11:34 1.3 °C -6.6 °C 1019.2 hPa NNW 2.9 km/h 9.3 km/h 56 % 0 mm
11:39 1.3 °C -5.8 °C 1018.8 hPa NW 6.9 km/h 13 km/h 59 % 0 mm
11:44 1.3 °C -6.1 °C 1018.8 hPa NNW 8.4 km/h 13 km/h 58 % 0 mm
11:49 1.2 °C -6.2 °C 1018.8 hPa North 3.7 km/h 7.4 km/h 58 % 0 mm
11:54 1 °C -6.3 °C 1018.8 hPa WNW 5 km/h 11.3 km/h 58 % 0 mm
11:59 0.8 °C -6.3 °C 1018.8 hPa NW 3.9 km/h 6.4 km/h 59 % 0 mm
12:04 0.8 °C -6.6 °C 1018.8 hPa West 5 km/h 13 km/h 58 % 0 mm
12:09 0.7 °C -6.6 °C 1018.8 hPa NNE 6.1 km/h 13 km/h 58 % 0 mm
12:14 0.7 °C -6.4 °C 1019.2 hPa WNW 5 km/h 9.3 km/h 59 % 0 mm
12:20 0.7 °C -6 °C 1018.8 hPa WNW 4.2 km/h 9.7 km/h 61 % 0 mm
12:25 0.7 °C -6.4 °C 1018.8 hPa North 5.1 km/h 6.4 km/h 59 % 0 mm
12:30 0.8 °C -6.6 °C 1018.8 hPa NW 6.3 km/h 13 km/h 58 % 0 mm
12:35 0.9 °C -6.4 °C 1018.8 hPa North 8.7 km/h 14.5 km/h 58 % 0 mm
12:40 1 °C -6.6 °C 1018.5 hPa North 6.4 km/h 9.3 km/h 57 % 0 mm
12:45 1 °C -6.6 °C 1018.5 hPa North 5.5 km/h 13 km/h 57 % 0 mm
12:50 1.1 °C -6.8 °C 1018.5 hPa NW 4.5 km/h 7.4 km/h 56 % 0 mm
12:55 1.1 °C -6.5 °C 1018.5 hPa West 1.8 km/h 6.4 km/h 57 % 0 mm
13:00 1.3 °C -6.1 °C 1018.8 hPa West 6.4 km/h 11.1 km/h 58 % 0 mm
13:05 1.4 °C -6.2 °C 1018.8 hPa SW 6.3 km/h 8 km/h 57 % 0 mm
13:10 1.4 °C -6.4 °C 1018.8 hPa WNW 10 km/h 18.5 km/h 56 % 0 mm
13:15 1.4 °C -6.4 °C 1018.5 hPa West 6.4 km/h 11.1 km/h 56 % 0 mm
13:20 1.4 °C -6.6 °C 1018.5 hPa WNW 5.3 km/h 11.1 km/h 55 % 0 mm
13:25 1.4 °C -6.4 °C 1018.5 hPa SW 11.6 km/h 18.5 km/h 56 % 0 mm
13:30 1.4 °C -6.4 °C 1018.2 hPa West 6.3 km/h 11.1 km/h 56 % 0 mm
13:35 1.4 °C -6.4 °C 1018.2 hPa NW 7.2 km/h 18.5 km/h 56 % 0 mm
13:41 1.3 °C -6.7 °C 1018.2 hPa West 3.2 km/h 16.1 km/h 55 % 0 mm
13:46 1.2 °C -6.6 °C 1018.2 hPa West 4.8 km/h 16.1 km/h 56 % 0 mm
13:51 1.3 °C -6.6 °C 1017.8 hPa WNW 4.8 km/h 12.9 km/h 56 % 0 mm
13:56 1.3 °C -6.6 °C 1017.8 hPa West 8 km/h 19.3 km/h 56 % 0 mm
14:01 1.3 °C -6.6 °C 1017.8 hPa SW 3.2 km/h 13 km/h 56 % 0 mm
14:06 1.4 °C -6.2 °C 1017.8 hPa SW 3.5 km/h 11.1 km/h 57 % 0 mm
14:11 1.3 °C -6.5 °C 1017.5 hPa WSW 7.9 km/h 18.5 km/h 56 % 0 mm
14:16 1.3 °C -6.7 °C 1017.5 hPa WSW 6.6 km/h 16.7 km/h 55 % 0 mm
14:21 1.3 °C -6.8 °C 1017.5 hPa WNW 8.2 km/h 18.5 km/h 55 % 0 mm
14:26 1.1 °C -6.7 °C 1017.8 hPa WNW 8 km/h 14.8 km/h 56 % 0 mm
14:31 1 °C -6.8 °C 1017.8 hPa NW 8.9 km/h 14.8 km/h 56 % 0 mm
14:36 0.8 °C -6.9 °C 1017.8 hPa SSW 11.3 km/h 18.5 km/h 56 % 0 mm
14:41 0.7 °C -6.9 °C 1017.8 hPa WSW 5.5 km/h 13 km/h 57 % 0 mm
14:46 0.5 °C -6.8 °C 1017.8 hPa NW 6.9 km/h 11.1 km/h 58 % 0 mm
14:51 0.3 °C -7 °C 1017.8 hPa West 9.3 km/h 19.3 km/h 58 % 0 mm
14:56 0.2 °C -7.1 °C 1017.8 hPa WNW 5.6 km/h 9.3 km/h 58 % 0 mm
15:01 0.1 °C -7.2 °C 1017.8 hPa WNW 7.7 km/h 11.1 km/h 58 % 0 mm
15:06 -0.1 °C -7.3 °C 1017.8 hPa NW 10.6 km/h 13 km/h 58 % 0 mm
15:11 -0.2 °C -7.1 °C 1017.8 hPa West 3.7 km/h 18.5 km/h 60 % 0 mm
15:16 -0.3 °C -6.9 °C 1017.8 hPa WNW 7.7 km/h 11.1 km/h 61 % 0 mm
15:21 -0.3 °C -6.9 °C 1018.2 hPa NW 6.8 km/h 14.8 km/h 61 % 0 mm
15:26 -0.4 °C -7.2 °C 1018.2 hPa WNW 8.2 km/h 16.7 km/h 60 % 0 mm
15:31 -0.5 °C -7.1 °C 1018.2 hPa SW 11.3 km/h 17.7 km/h 61 % 0 mm
15:37 -0.6 °C -7.2 °C 1018.2 hPa NW 10.8 km/h 13 km/h 61 % 0 mm
15:42 -0.6 °C -7.2 °C 1018.5 hPa WSW 5.5 km/h 13 km/h 61 % 0 mm
15:47 -0.7 °C -7.1 °C 1018.2 hPa WSW 6.3 km/h 13 km/h 62 % 0 mm
15:52 -0.7 °C -7.1 °C 1018.5 hPa NW 5.3 km/h 9.3 km/h 62 % 0 mm
15:57 -0.8 °C -7.2 °C 1018.5 hPa SW 8 km/h 16.7 km/h 62 % 0 mm
16:02 -0.8 °C -7.2 °C 1018.5 hPa West 4 km/h 13 km/h 62 % 0 mm
16:07 -0.9 °C -7.3 °C 1018.5 hPa WNW 4.8 km/h 9.3 km/h 62 % 0 mm
16:12 -0.9 °C -7.1 °C 1018.5 hPa WNW 6 km/h 11.1 km/h 63 % 0 mm
16:17 -1 °C -7.2 °C 1018.5 hPa WNW 3.9 km/h 13 km/h 63 % 0 mm
16:22 -1.1 °C -7.2 °C 1018.5 hPa NW 3.4 km/h 5.6 km/h 63 % 0 mm
16:27 -1.1 °C -7.1 °C 1018.8 hPa WNW 3.2 km/h 11.3 km/h 64 % 0 mm
16:32 -1.2 °C -7.3 °C 1018.5 hPa NW 7.1 km/h 11.1 km/h 63 % 0 mm
16:37 -1.2 °C -7.3 °C 1018.5 hPa WNW 7.4 km/h 14.8 km/h 63 % 0 mm
16:42 -1.2 °C -7.4 °C 1018.5 hPa WNW 7.7 km/h 14.8 km/h 63 % 0 mm
16:47 -1.3 °C -7.2 °C 1018.8 hPa WNW 3.1 km/h 7.4 km/h 64 % 0 mm
16:52 -1.3 °C -7.3 °C 1019.2 hPa WNW 5.1 km/h 13 km/h 64 % 0 mm
16:57 -1.3 °C -7.1 °C 1019.2 hPa WNW 5.8 km/h 13 km/h 65 % 0 mm
17:02 -1.4 °C -7.2 °C 1019.2 hPa WNW 2.4 km/h 7.4 km/h 65 % 0 mm
17:08 -1.4 °C -7.2 °C 1018.8 hPa WNW 1.1 km/h 14.8 km/h 65 % 0 mm
17:13 -1.5 °C -7.2 °C 1019.2 hPa WNW 7.7 km/h 11.1 km/h 65 % 0 mm
17:18 -1.6 °C -7.3 °C 1019.2 hPa NNW 5.6 km/h 13 km/h 65 % 0 mm
17:23 -1.6 °C -7.3 °C 1019.2 hPa NW 8.9 km/h 18.5 km/h 65 % 0 mm
17:28 -1.7 °C -7.2 °C 1019.5 hPa WNW 6 km/h 14.5 km/h 66 % 0 mm
17:33 -1.7 °C -7.4 °C 1019.5 hPa WNW 7.6 km/h 11.1 km/h 65 % 0 mm
17:38 -1.8 °C -7.3 °C 1019.5 hPa NW 3.5 km/h 9.7 km/h 66 % 0 mm
17:43 -1.8 °C -7.3 °C 1019.5 hPa WNW 3.9 km/h 11.1 km/h 66 % 0 mm
17:48 -1.8 °C -7.3 °C 1019.5 hPa WNW 2.7 km/h 5.6 km/h 66 % 0 mm
17:53 -1.8 °C -7.1 °C 1019.5 hPa NNW 5.8 km/h 11.3 km/h 67 % 0 mm
17:58 -1.8 °C -7.2 °C 1019.5 hPa NW 8.7 km/h 19.3 km/h 67 % 0 mm
18:03 -1.8 °C -7.3 °C 1019.9 hPa WNW 5.6 km/h 9.3 km/h 66 % 0 mm
18:08 -1.8 °C -7.3 °C 1019.9 hPa WNW 3.9 km/h 4.8 km/h 66 % 0 mm
18:13 -1.8 °C -7.3 °C 1019.9 hPa WNW 6 km/h 11.3 km/h 66 % 0 mm
18:18 -1.8 °C -7.3 °C 1020.2 hPa NW 3.9 km/h 11.1 km/h 66 % 0 mm
18:23 -1.7 °C -7.2 °C 1020.2 hPa NNW 5 km/h 11.1 km/h 66 % 0 mm
18:28 -1.7 °C -7.4 °C 1020.2 hPa West 6.8 km/h 14.8 km/h 65 % 0 mm
18:34 -1.7 °C -7.7 °C 1020.2 hPa NW 5 km/h 13 km/h 64 % 0 mm
18:39 -1.7 °C -7.4 °C 1020.2 hPa NNW 4.7 km/h 7.4 km/h 65 % 0 mm
18:44 -1.7 °C -7.6 °C 1020.2 hPa NW 8.4 km/h 13 km/h 64 % 0 mm
18:49 -1.7 °C -7.6 °C 1020.5 hPa WNW 8.5 km/h 14.8 km/h 64 % 0 mm
18:54 -1.7 °C -7.6 °C 1020.9 hPa WNW 8.7 km/h 14.8 km/h 64 % 0 mm
18:59 -1.7 °C -7.4 °C 1020.9 hPa NW 8.7 km/h 14.8 km/h 65 % 0 mm
19:04 -1.7 °C -7.6 °C 1020.9 hPa WNW 1.1 km/h 5.6 km/h 64 % 0 mm
19:09 -1.6 °C -7.6 °C 1020.9 hPa NNW 4 km/h 5.6 km/h 64 % 0 mm
19:14 -1.6 °C -7.6 °C 1020.9 hPa WNW 3.4 km/h 7.4 km/h 64 % 0 mm
19:19 -1.6 °C -7.6 °C 1021.2 hPa NW 6.4 km/h 11.1 km/h 64 % 0 mm
19:24 -1.6 °C -7.6 °C 1021.2 hPa WNW 6.9 km/h 11.1 km/h 64 % 0 mm
19:29 -1.6 °C -7.6 °C 1021.2 hPa WNW 6.9 km/h 18.5 km/h 64 % 0 mm
19:34 -1.6 °C -7.6 °C 1021.2 hPa NW 1.9 km/h 5.6 km/h 64 % 0 mm
19:39 -1.7 °C -7.8 °C 1021.2 hPa WNW 7.2 km/h 7.4 km/h 63 % 0 mm
19:44 -1.7 °C -7.6 °C 1021.6 hPa NW 7.9 km/h 18.5 km/h 64 % 0 mm
19:49 -1.7 °C -7.8 °C 1021.2 hPa WNW 6.4 km/h 11.1 km/h 63 % 0 mm
19:55 -1.7 °C -7.8 °C 1021.6 hPa NW 2.9 km/h 7.4 km/h 63 % 0 mm
20:00 -1.7 °C -8.1 °C 1021.6 hPa West 5.8 km/h 11.3 km/h 62 % 0 mm
20:05 -1.7 °C -7.8 °C 1021.6 hPa WNW 10 km/h 18.5 km/h 63 % 0 mm
20:10 -1.7 °C -8.1 °C 1021.9 hPa WNW 3.9 km/h 14.8 km/h 62 % 0 mm
20:15 -1.7 °C -8.1 °C 1021.9 hPa West 5.8 km/h 14.8 km/h 62 % 0 mm
20:20 -1.8 °C -8.1 °C 1021.9 hPa WNW 7.4 km/h 11.3 km/h 62 % 0 mm
20:25 -1.8 °C -7.9 °C 1021.9 hPa WNW 6.4 km/h 16.1 km/h 63 % 0 mm
20:30 -1.8 °C -7.9 °C 1021.9 hPa West 5.6 km/h 13 km/h 63 % 0 mm
20:35 -1.8 °C -7.9 °C 1021.9 hPa WNW 6.3 km/h 9.3 km/h 63 % 0 mm
20:40 -1.9 °C -8 °C 1021.6 hPa WNW 5.5 km/h 9.3 km/h 63 % 0 mm
20:45 -1.9 °C -7.8 °C 1021.9 hPa WNW 2.9 km/h 5.6 km/h 64 % 0 mm
20:50 -2 °C -7.9 °C 1021.9 hPa WNW 1.6 km/h 5.6 km/h 64 % 0 mm
20:55 -2.1 °C -7.8 °C 1021.9 hPa WNW 4.5 km/h 7.4 km/h 65 % 0 mm
21:00 -2.1 °C -7.8 °C 1021.9 hPa Calm   3.7 km/h 65 % 0 mm
21:05 -2.2 °C -7.7 °C 1021.9 hPa Calm   1.9 km/h 66 % 0 mm
21:10 -2.2 °C -7.7 °C 1021.9 hPa WNW 3.9 km/h 9.3 km/h 66 % 0 mm
21:15 -2.3 °C -7.8 °C 1021.9 hPa WNW 3.2 km/h 5.6 km/h 66 % 0 mm
21:20 -2.3 °C -7.6 °C 1021.9 hPa Calm   6.4 km/h 67 % 0 mm
21:25 -2.4 °C -7.7 °C 1021.9 hPa West 1.6 km/h 8 km/h 67 % 0 mm
21:30 -2.4 °C -7.7 °C 1021.9 hPa West 1.6 km/h 8 km/h 67 % 0 mm
21:35 -2.4 °C -7.7 °C 1021.9 hPa West 1.6 km/h 8 km/h 67 % 0 mm
21:41 -2.5 °C -7.8 °C 1022.2 hPa WNW 1.6 km/h 8 km/h 67 % 0 mm
21:45 -2.5 °C -7.8 °C 1022.2 hPa West 1.6 km/h 4.8 km/h 67 % 0 mm
21:50 -2.5 °C -7.8 °C 1022.2 hPa WNW 1.6 km/h 4.8 km/h 67 % 0 mm
21:55 -2.6 °C -7.7 °C 1022.2 hPa Calm     68 % 0 mm
22:01 -2.6 °C -7.7 °C 1022.2 hPa Calm   1.9 km/h 68 % 0 mm
22:05 -2.6 °C -7.7 °C 1022.2 hPa Calm   3.2 km/h 68 % 0 mm
22:10 -2.7 °C -7.8 °C 1022.6 hPa Calm     68 % 0 mm
22:15 -2.7 °C -7.6 °C 1022.2 hPa Calm   1.6 km/h 69 % 0 mm
22:20 -2.8 °C -7.7 °C 1022.6 hPa Calm   1.6 km/h 69 % 0 mm
22:25 -2.8 °C -7.7 °C 1022.6 hPa Calm     69 % 0 mm
22:30 -2.9 °C -7.7 °C 1022.6 hPa Calm     70 % 0 mm
22:35 -3 °C -7.7 °C 1022.6 hPa Calm     70 % 0 mm
22:40 -3.1 °C -7.8 °C 1022.9 hPa Calm     70 % 0 mm
22:45 -3.2 °C -7.9 °C 1022.6 hPa Calm     70 % 0 mm
22:50 -3.3 °C -7.8 °C 1022.6 hPa Calm     71 % 0 mm
22:55 -3.3 °C -7.9 °C 1022.9 hPa Calm   1.6 km/h 71 % 0 mm
23:01 -3.4 °C -7.9 °C 1022.9 hPa Calm     71 % 0 mm
23:06 -3.6 °C -7.9 °C 1022.9 hPa Calm   1.9 km/h 72 % 0 mm
23:11 -3.7 °C -8 °C 1022.9 hPa Calm   1.9 km/h 72 % 0 mm
23:16 -3.7 °C -8.1 °C 1022.9 hPa Calm     72 % 0 mm
23:21 -3.8 °C -7.9 °C 1023.2 hPa West 1 km/h 3.7 km/h 73 % 0 mm
23:26 -3.9 °C -8 °C 1022.9 hPa West 0.2 km/h 1.9 km/h 73 % 0 mm
23:31 -3.9 °C -8.1 °C 1022.9 hPa Calm     73 % 0 mm
23:36 -4 °C -8.1 °C 1022.9 hPa West 0.2 km/h 1.9 km/h 73 % 0 mm
23:41 -4.1 °C -8 °C 1022.9 hPa Calm     74 % 0 mm
23:46 -4.1 °C -8 °C 1022.6 hPa Calm     74 % 0 mm
23:51 -4.1 °C -8.1 °C 1022.6 hPa West 0.6 km/h 1.9 km/h 74 % 0 mm
23:56 -4.2 °C -8.1 °C 1022.2 hPa Calm   3.7 km/h 74 % 0 mm
Crab Meadow Weather
Compliments of Weather Underground - 3 mb

Script developed by  Jim McMurry - jmcmurry@mwt.net Adapted for the template by  Wim van der Kuil - Leuven-Template.eu

Recycling: Americans threw away 38 billion plastic water bottles in 2006. A million and a half barrels of oil - enough to fuel 100,000 cars for a year - were used to produce the bottles.